^^
Station Historical Data
Daily Summary for March 5, 2017 Units:  Metric    English   Both
« Previous Day
Next Day »
Daily Weekly Monthly Yearly Custom
  High: Low: Average:
Temperature: 33.4 °C 15.4 °C 21.9 °C
Dew Point: 7.8 °C -1.8 °C 5.9 °C
Humidity: 59% 15% 40%
Wind Speed: 22.7km/h 0km/h 10.1km/h
Wind Gust: 22.7km/h - -
Wind- - SSW
Pressure: 1010.7 hPa 1007 hPa -
Precipitation: 0 mm    
Historical Graphs
 
 
Tabular Data for March 5, 2017
Time Temperature Dew Point Pressure Wind Wind Speed Wind Gust Humidity Rainfall Rate (Hourly) solar Conditions
00:01 19.1 °C 7.5 °C 1009 hPa SSW 13 km/h 22.5 km/h 47% 0 mm 0.0 W/m2
00:06 19 °C 7.7 °C 1009 hPa SSW 22.7 km/h 22.7 km/h 48% 0 mm 0.0 W/m2
00:11 18.9 °C 7.6 °C 1009 hPa SSW 17.7 km/h 22.5 km/h 48% 0 mm 0.0 W/m2
00:21 18.7 °C 7.5 °C 1009 hPa SSW 13 km/h 16.1 km/h 48% 0 mm 0.0 W/m2
00:26 18.7 °C 7.8 °C 1009 hPa SSW 13 km/h 14.5 km/h 49% 0 mm 0.0 W/m2
00:36 18.6 °C 7.7 °C 1009 hPa SSW 13 km/h 13 km/h 49% 0 mm 0.0 W/m2
00:51 18.4 °C 7.5 °C 1009 hPa SSW 11.1 km/h 12.9 km/h 49% 0 mm 0.0 W/m2
00:57 18.3 °C 7.4 °C 1009 hPa SSW 9.7 km/h 11.3 km/h 49% 0 mm 0.0 W/m2
01:06 18.2 °C 7.6 °C 1009 hPa SSW 14.3 km/h 16.1 km/h 50% 0 mm 0.0 W/m2
01:12 18.2 °C 7.6 °C 1009 hPa SSW 7.9 km/h 12.9 km/h 50% 0 mm 0.0 W/m2
01:17 18.2 °C 7.6 °C 1009 hPa SSW 7.9 km/h 11.3 km/h 50% 0 mm 0.0 W/m2
01:22 18.1 °C 7.5 °C 1009 hPa SSW 9.7 km/h 12.9 km/h 50% 0 mm 0.0 W/m2
01:27 18.1 °C 7.5 °C 1009 hPa SSW 6.4 km/h 12.9 km/h 50% 0 mm 0.0 W/m2
01:33 17.9 °C 7.3 °C 1009 hPa SSW 7.9 km/h 9.7 km/h 50% 0 mm 0.0 W/m2
01:38 17.9 °C 7.3 °C 1008.7 hPa SSW 7.9 km/h 11.3 km/h 50% 0 mm 0.0 W/m2
01:43 17.8 °C 7.2 °C 1009 hPa SSW 6.4 km/h 8 km/h 50% 0 mm 0.0 W/m2
01:48 17.8 °C 7.5 °C 1008.7 hPa SSW 7.9 km/h 11.3 km/h 51% 0 mm 0.0 W/m2
01:53 17.8 °C 7.5 °C 1008.7 hPa SSW 7.9 km/h 12.9 km/h 51% 0 mm 0.0 W/m2
01:58 17.7 °C 7.4 °C 1008.7 hPa SSW 7.9 km/h 12.9 km/h 51% 0 mm 0.0 W/m2
02:03 17.7 °C 7.4 °C 1008.4 hPa SSW 7.9 km/h 14.5 km/h 51% 0 mm 0.0 W/m2
02:08 17.6 °C 7.3 °C 1008.4 hPa SSW 14.3 km/h 16.1 km/h 51% 0 mm 0.0 W/m2
02:13 17.6 °C 7.3 °C 1008.4 hPa SW 7.9 km/h 14.5 km/h 51% 0 mm 0.0 W/m2
02:18 17.6 °C 7.3 °C 1008.4 hPa SW 14.3 km/h 19.3 km/h 51% 0 mm 0.0 W/m2
02:23 17.6 °C 7.3 °C 1008.4 hPa SW 11.1 km/h 14.5 km/h 51% 0 mm 0.0 W/m2
02:33 17.5 °C 7.2 °C 1008.4 hPa SW 14.3 km/h 20.9 km/h 51% 0 mm 0.0 W/m2
02:43 17.4 °C 7.4 °C 1008.4 hPa SW 13 km/h 16.1 km/h 52% 0 mm 0.0 W/m2
02:48 17.3 °C 7.3 °C 1008.4 hPa SW 16.3 km/h 17.7 km/h 52% 0 mm 0.0 W/m2
02:53 17.3 °C 7.3 °C 1008.4 hPa SW 11.1 km/h 17.7 km/h 52% 0 mm 0.0 W/m2
02:58 17.2 °C 7.3 °C 1008.4 hPa SW 13 km/h 16.1 km/h 52% 0 mm 0.0 W/m2
03:03 17.2 °C 7.3 °C 1008.4 hPa SW 11.1 km/h 16.1 km/h 52% 0 mm 0.0 W/m2
03:08 17.1 °C 7.2 °C 1008.4 hPa SW 14.3 km/h 14.5 km/h 52% 0 mm 0.0 W/m2
03:18 17 °C 7.1 °C 1008.4 hPa SW 13 km/h 17.7 km/h 52% 0 mm 0.0 W/m2
03:23 17 °C 7.1 °C 1008.4 hPa SW 14.3 km/h 14.5 km/h 52% 0 mm 0.0 W/m2
03:28 16.9 °C 7 °C 1008.4 hPa SW 9.7 km/h 11.3 km/h 52% 0 mm 0.0 W/m2
03:33 16.9 °C 7 °C 1008.4 hPa SW 11.1 km/h 11.3 km/h 52% 0 mm 0.0 W/m2
03:39 16.9 °C 7 °C 1008.4 hPa SW 11.1 km/h 12.9 km/h 52% 0 mm 0.0 W/m2
03:44 16.9 °C 7 °C 1008.4 hPa SW 9.7 km/h 12.9 km/h 52% 0 mm 0.0 W/m2
03:49 16.8 °C 6.9 °C 1008.4 hPa SW 13 km/h 13 km/h 52% 0 mm 0.0 W/m2
03:59 16.7 °C 7.1 °C 1008.7 hPa SW 13 km/h 14.5 km/h 53% 0 mm 0.0 W/m2
04:09 16.7 °C 7.1 °C 1008.4 hPa SW 9.7 km/h 12.9 km/h 53% 0 mm 0.0 W/m2
04:14 16.6 °C 7.3 °C 1008.7 hPa SW 11.1 km/h 12.9 km/h 54% 0 mm 0.0 W/m2
04:19 16.6 °C 7.3 °C 1008.7 hPa SW 13 km/h 17.7 km/h 54% 0 mm 0.0 W/m2
04:29 16.5 °C 7.2 °C 1008.4 hPa SW 13 km/h 16.1 km/h 54% 0 mm 0.0 W/m2
04:39 16.3 °C 7 °C 1008.7 hPa SW 13 km/h 14.5 km/h 54% 0 mm 0.0 W/m2
04:44 16.3 °C 7.2 °C 1008.4 hPa SW 13 km/h 16.1 km/h 55% 0 mm 0.0 W/m2
04:49 16.2 °C 7.1 °C 1008.7 hPa SW 9.7 km/h 16.1 km/h 55% 0 mm 0.0 W/m2
04:54 16.2 °C 7.1 °C 1008.7 hPa SW 13 km/h 16.1 km/h 55% 0 mm 0.0 W/m2
04:59 16.2 °C 7.1 °C 1008.7 hPa SW 11.1 km/h 14.5 km/h 55% 0 mm 0.0 W/m2
05:04 16.1 °C 7.1 °C 1008.4 hPa SW 13 km/h 16.1 km/h 55% 0 mm 0.0 W/m2
05:14 16.1 °C 7.3 °C 1008.7 hPa SW 13 km/h 16.1 km/h 56% 0 mm 0.0 W/m2
05:19 16 °C 7.2 °C 1008.4 hPa SW 14.3 km/h 17.7 km/h 56% 0 mm 0.0 W/m2
05:25 16 °C 7.2 °C 1008.4 hPa SW 14.3 km/h 17.7 km/h 56% 0 mm 0.0 W/m2
05:35 15.9 °C 7.1 °C 1008.7 hPa SW 13 km/h 16.1 km/h 56% 0 mm 0.0 W/m2
05:40 15.8 °C 7.3 °C 1008.7 hPa SW 11.1 km/h 14.5 km/h 57% 0 mm 0.0 W/m2
05:50 15.8 °C 7.3 °C 1008.7 hPa SW 7.9 km/h 14.5 km/h 57% 0 mm 0.0 W/m2
05:55 15.8 °C 7.3 °C 1008.7 hPa SW 14.3 km/h 14.5 km/h 57% 0 mm 0.0 W/m2
06:00 15.7 °C 7.2 °C 1008.7 hPa SW 14.3 km/h 14.5 km/h 57% 0 mm 0.0 W/m2
06:06 15.7 °C 7.2 °C 1008.7 hPa SW 13 km/h 16.1 km/h 57% 0 mm 0.0 W/m2
06:24 15.6 °C 7.4 °C 1009 hPa SW 13 km/h 16.1 km/h 58% 0 mm 0.0 W/m2
06:35 15.6 °C 7.4 °C 1009 hPa SW 7.9 km/h 14.5 km/h 58% 0 mm 0.0 W/m2
06:50 15.4 °C 7.4 °C 1009.4 hPa SW 6.4 km/h 8 km/h 59% 0 mm 5.0 W/m2
07:05 15.4 °C 7.4 °C 1009.4 hPa SW 11.1 km/h 11.3 km/h 59% 0 mm 14.0 W/m2
07:14 15.7 °C 7.5 °C 1009.7 hPa SW 11.1 km/h 11.3 km/h 58% 0 mm 44.0 W/m2
07:46 16.5 °C 7.4 °C 1009.7 hPa SW 9.7 km/h 14.5 km/h 55% 0 mm 139.0 W/m2
07:54 16.9 °C 7.5 °C 1009.7 hPa SW 13 km/h 17.7 km/h 54% 0 mm 209.0 W/m2
08:15 17.3 °C 7.3 °C 1010 hPa SW 11.1 km/h 12.9 km/h 52% 0 mm 265.0 W/m2
08:26 17.7 °C 7.4 °C 1010 hPa SW 14.3 km/h 16.1 km/h 51% 0 mm 302.0 W/m2
08:35 18.3 °C 7.4 °C 1010 hPa SW 7.9 km/h 14.5 km/h 49% 0 mm 359.0 W/m2
08:56 18.9 °C 7 °C 1010.4 hPa SW 13 km/h 14.5 km/h 46% 0 mm 413.0 W/m2
09:05 19.5 °C 7.2 °C 1010.4 hPa SW 11.1 km/h 14.5 km/h 45% 0 mm 461.0 W/m2
09:20 20.2 °C 6.9 °C 1010.7 hPa SSW 13 km/h 14.5 km/h 42% 0 mm 512.0 W/m2
09:35 20.6 °C 7.2 °C 1010.7 hPa SSW 16.3 km/h 16.3 km/h 42% 0 mm 563.0 W/m2
09:52 21 °C 7.2 °C 1010.7 hPa SSW 14.3 km/h 16.1 km/h 41% 0 mm 591.0 W/m2
10:06 21.4 °C 6.9 °C 1010.7 hPa SW 16.3 km/h 17.7 km/h 39% 0 mm 636.0 W/m2
10:15 21.8 °C 6.8 °C 1010.7 hPa SW 16.3 km/h 17.7 km/h 38% 0 mm 663.0 W/m2
10:28 22.4 °C 6.6 °C 1010.7 hPa SW 9.7 km/h 17.7 km/h 36% 0 mm 693.0 W/m2
10:36 22.9 °C 6.6 °C 1010.7 hPa SW 6.4 km/h 16.1 km/h 35% 0 mm 729.0 W/m2
10:41 23.1 °C 6.4 °C 1010.7 hPa SW 11.1 km/h 17.7 km/h 34% 0 mm 744.0 W/m2
10:46 23.4 °C 6.6 °C 1010.7 hPa SW 9.7 km/h 16.1 km/h 34% 0 mm 756.0 W/m2
10:55 23.6 °C 6.4 °C 1010.4 hPa SW 6.4 km/h 16.1 km/h 33% 0 mm 768.0 W/m2
11:05 24.1 °C 6.4 °C 1010.4 hPa Calm   1.6 km/h 32% 0 mm 789.0 W/m2
11:14 24.7 °C 6 °C 1010.4 hPa Calm   11.3 km/h 30% 0 mm 810.0 W/m2
12:33 28.9 °C 4.4 °C 1009.4 hPa SW 6.4 km/h 12.9 km/h 21% 0 mm 911.0 W/m2
12:48 29.3 °C 4.7 °C 1009.4 hPa SW 9.7 km/h 12.9 km/h 21% 0 mm 914.0 W/m2
13:09 29.6 °C 4.3 °C 1009.4 hPa SW 14.3 km/h 16.1 km/h 20% 0 mm 914.0 W/m2
13:24 30 °C 3.9 °C 1009 hPa Calm   14.5 km/h 19% 0 mm 911.0 W/m2
13:28 30.1 °C 3.2 °C 1009 hPa Calm   11.3 km/h 18% 0 mm 905.0 W/m2
13:38 30.3 °C 3.3 °C 1009 hPa Calm     18% 0 mm 896.0 W/m2
13:53 30.5 °C 3.5 °C 1009 hPa SSW 9.7 km/h 12.9 km/h 18% 0 mm 888.0 W/m2
14:04 30.7 °C 3.7 °C 1009 hPa South 7.9 km/h 12.9 km/h 18% 0 mm 874.0 W/m2
14:13 31 °C 3.9 °C 1008.7 hPa South 6.4 km/h 11.3 km/h 18% 0 mm 867.0 W/m2
14:19 31.6 °C 3.6 °C 1008.7 hPa Calm     17% 0 mm 856.0 W/m2
14:24 31.5 °C 3.5 °C 1008.7 hPa Calm   8 km/h 17% 0 mm 847.0 W/m2
14:29 31.6 °C 4.4 °C 1008.4 hPa South 4.7 km/h 12.9 km/h 18% 0 mm 840.0 W/m2
14:34 31.7 °C 3.7 °C 1008.4 hPa Calm     17% 0 mm 830.0 W/m2
14:41 31.7 °C 3.7 °C 1008.4 hPa Calm     17% 0 mm 821.0 W/m2
16:13 32.8 °C 5.4 °C 1007.3 hPa SSW 3.2 km/h 12.9 km/h 18% 0 mm 612.0 W/m2
16:27 32.8 °C 5.4 °C 1007.3 hPa SSW 11.1 km/h 11.3 km/h 18% 0 mm 564.0 W/m2
16:36 33 °C 6.3 °C 1007.3 hPa Calm   9.7 km/h 19% 0 mm 517.0 W/m2
16:46 33.3 °C 5.8 °C 1007.3 hPa SSW 9.7 km/h 14.5 km/h 18% 0 mm 483.0 W/m2
17:04 33.2 °C 6.5 °C 1007.3 hPa SSW 3.2 km/h 3.2 km/h 19% 0 mm 448.0 W/m2
17:19 33.4 °C 5.8 °C 1007 hPa Calm     18% 0 mm 392.0 W/m2
17:32 33.2 °C 6.5 °C 1007 hPa Calm     19% 0 mm 336.0 W/m2
17:40 33.2 °C 5.7 °C 1007 hPa SSW 9.7 km/h 11.3 km/h 18% 0 mm 304.0 W/m2
19:40 31.1 °C 4 °C 1007.7 hPa SSW 13 km/h 17.7 km/h 18% 0 mm 0.0 W/m2
19:44 30.9 °C 3.8 °C 1007.7 hPa SSW 17.7 km/h 19.3 km/h 18% 0 mm 0.0 W/m2
19:59 30.5 °C 3.5 °C 1008 hPa SSW 9.7 km/h 14.5 km/h 18% 0 mm 0.0 W/m2
20:13 30.3 °C 3.3 °C 1008.4 hPa SSW 13 km/h 13 km/h 18% 0 mm 0.0 W/m2
20:26 29.9 °C 3.8 °C 1008.4 hPa SSW 11.1 km/h 12.9 km/h 19% 0 mm 0.0 W/m2
20:35 29.5 °C 3.4 °C 1008.4 hPa SSW 11.1 km/h 12.9 km/h 19% 0 mm 0.0 W/m2
20:42 29.3 °C 3.3 °C 1008.4 hPa SSW 9.7 km/h 14.5 km/h 19% 0 mm 0.0 W/m2
22:22 27.6 °C -1.4 °C 1010 hPa SSW 13 km/h 16.1 km/h 15% 0 mm 0.0 W/m2
22:27 27.4 °C -1.5 °C 1010 hPa SSW 9.7 km/h 16.1 km/h 15% 0 mm 0.0 W/m2
22:32 27.3 °C -1.6 °C 1010 hPa SSW 13 km/h 14.5 km/h 15% 0 mm 0.0 W/m2
22:42 27.1 °C -1.8 °C 1010 hPa SSW 13 km/h 14.5 km/h 15% 0 mm 0.0 W/m2
22:58 26.8 °C -1.1 °C 1010 hPa SSW 9.7 km/h 12.9 km/h 16% 0 mm 0.0 W/m2
23:03 26.7 °C -0.4 °C 1010 hPa SSW 11.1 km/h 12.9 km/h 17% 0 mm 0.0 W/m2
23:13 26.1 °C -0.1 °C 1010.4 hPa SSW 7.9 km/h 8 km/h 18% 0 mm 0.0 W/m2
23:23 25.7 °C 1.7 °C 1010.4 hPa SSW 6.4 km/h 9.7 km/h 21% 0 mm 0.0 W/m2
23:28 25.7 °C 2.4 °C 1010 hPa SSW 11.1 km/h 12.9 km/h 22% 0 mm 0.0 W/m2
23:38 25.8 °C 3.1 °C 1010 hPa SSW 11.1 km/h 16.1 km/h 23% 0 mm 0.0 W/m2
23:43 25.9 °C 3.8 °C 1010 hPa SSW 16.3 km/h 16.3 km/h 24% 0 mm 0.0 W/m2
23:48 25.8 °C 4.8 °C 1010 hPa SSW 13 km/h 17.7 km/h 26% 0 mm 0.0 W/m2
23:58 25.5 °C 5.7 °C 1010 hPa SSW 11.1 km/h 16.1 km/h 28% 0 mm 0.0 W/m2
Canyon Roadhouse, Fishriver Canyon, Namibia
Compliments of Weather Underground - 2.25 mb